Time;durP1;ratioP1;P1;durP2;ratioP2;P2;SDS_P1;SDS_P2;PMS_P1;PMS_P2;Temp;Humidity;BMP_temperature;BMP_pressure;BME280_temperature;BME280_humidity;BME280_pressure;Samples;Min_cycle;Max_cycle;Signal;HPM_P1;HPM_P2
2021/01/28 00:00:27;;;;;;;;;;;;;;;;;;;;;
2021/01/28 00:02:55;;;;;;;5.87;4.87;;;4.50;99.90;;;;;;4931738;29;20442;-87
2021/01/28 00:05:30;;;;;;;9.40;4.73;;;4.40;99.90;;;;;;4913403;29;20454;-86
2021/01/28 00:08:01;;;;;;;5.27;4.57;;;4.50;99.90;;;;;;4932935;28;20458;-86
2021/01/28 00:10:31;;;;;;;7.43;4.83;;;4.60;99.90;;;;;;4929248;29;20442;-85
2021/01/28 00:13:03;;;;;;;5.70;4.30;;;4.70;99.90;;;;;;4912049;29;20979;-84
2021/01/28 00:15:34;;;;;;;5.10;4.20;;;4.70;99.90;;;;;;4913534;29;20431;-85
2021/01/28 00:18:07;;;;;;;6.10;4.27;;;4.70;99.90;;;;;;4929881;29;20435;-85
2021/01/28 00:20:38;;;;;;;4.10;3.70;;;4.70;99.90;;;;;;4934877;29;20483;-89
2021/01/28 00:23:07;;;;;;;5.37;4.03;;;4.70;99.90;;;;;;4915221;29;20448;-83
2021/01/28 00:25:36;;;;;;;3.53;3.20;;;4.80;99.90;;;;;;4912119;29;20446;-86
2021/01/28 00:28:06;;;;;;;5.60;4.43;;;4.70;99.90;;;;;;4932734;29;20903;-84
2021/01/28 00:30:39;;;;;;;3.87;3.27;;;4.70;99.90;;;;;;4917975;29;20532;-86
2021/01/28 00:33:06;;;;;;;4.67;4.10;;;4.80;99.90;;;;;;4942391;28;20423;-83
2021/01/28 00:35:41;;;;;;;4.03;3.63;;;4.70;99.90;;;;;;4919643;29;20464;-85
2021/01/28 00:38:15;;;;;;;4.27;3.70;;;4.70;99.90;;;;;;4922174;29;20455;-85
2021/01/28 00:43:30;;;;;;;3.37;3.07;;;4.80;99.90;;;;;;4938124;28;20451;-85
2021/01/28 00:45:59;;;;;;;3.60;3.27;;;4.80;99.90;;;;;;4917513;29;20778;-86
2021/01/28 00:48:32;;;;;;;5.00;3.50;;;4.80;99.90;;;;;;4914157;29;20211;-86
2021/01/28 00:51:03;;;;;;;3.53;3.20;;;4.80;99.90;;;;;;4926013;29;21082;-81
2021/01/28 00:53:29;;;;;;;2.97;2.67;;;4.80;99.90;;;;;;4937658;29;20462;-84
2021/01/28 00:55:55;;;;;;;4.60;3.23;;;4.90;99.90;;;;;;4922071;29;20452;-85
2021/01/28 00:58:23;;;;;;;5.47;3.20;;;4.90;99.90;;;;;;4931228;29;20480;-86
2021/01/28 01:00:49;;;;;;;4.47;2.93;;;4.90;99.90;;;;;;4942311;28;21008;-86
2021/01/28 01:03:17;;;;;;;3.90;3.50;;;4.90;99.90;;;;;;4937620;29;20547;-87
2021/01/28 01:05:44;;;;;;;3.53;3.23;;;5.00;99.90;;;;;;4933821;29;20463;-84
2021/01/28 01:08:24;;;;;;;3.80;3.33;;;4.90;99.90;;;;;;4937693;29;20996;-85
2021/01/28 01:10:52;;;;;;;3.33;3.03;;;4.90;99.90;;;;;;4937109;29;20836;-87
2021/01/28 01:13:24;;;;;;;3.13;2.63;;;5.00;99.90;;;;;;4935885;29;20459;-85
2021/01/28 01:15:50;;;;;;;3.20;2.90;;;5.00;99.90;;;;;;4933721;29;20986;-85
2021/01/28 01:18:19;;;;;;;3.40;2.63;;;5.00;99.90;;;;;;4942028;29;20958;-83
2021/01/28 01:20:46;;;;;;;3.30;2.60;;;5.00;99.90;;;;;;4935690;29;20441;-85
2021/01/28 01:23:11;;;;;;;2.73;2.50;;;5.00;99.90;;;;;;4932795;28;20513;-85
2021/01/28 01:25:37;;;;;;;4.03;2.60;;;5.00;99.90;;;;;;4935372;29;20453;-83
2021/01/28 01:28:03;;;;;;;8.80;2.47;;;5.00;99.90;;;;;;4915379;29;20227;-85
2021/01/28 01:30:29;;;;;;;2.30;2.10;;;5.00;99.90;;;;;;4936351;28;20199;-85
2021/01/28 01:32:55;;;;;;;2.10;1.90;;;5.00;99.90;;;;;;4933292;29;20597;-84
2021/01/28 01:35:23;;;;;;;2.80;2.43;;;5.10;99.90;;;;;;4934743;29;20188;-86
2021/01/28 01:37:50;;;;;;;4.53;2.40;;;5.10;99.90;;;;;;4931767;29;20223;-87
2021/01/28 01:40:27;;;;;;;2.03;1.83;;;5.10;99.90;;;;;;4936479;28;20455;-87
2021/01/28 01:42:53;;;;;;;2.30;2.10;;;5.00;99.90;;;;;;4937103;29;20818;-86
2021/01/28 01:45:29;;;;;;;1.70;1.60;;;5.00;99.90;;;;;;4923357;29;20451;-83
2021/01/28 01:48:02;;;;;;;1.90;1.80;;;5.10;99.90;;;;;;4921654;29;20473;-85
2021/01/28 01:50:50;;;;;;;2.50;2.30;;;5.10;99.90;;;;;;4934391;29;20443;-83
2021/01/28 01:53:27;;;;;;;1.47;1.37;;;5.10;99.90;;;;;;4936226;29;20483;-83
2021/01/28 01:56:11;;;;;;;1.90;1.73;;;5.10;99.90;;;;;;4929273;28;20454;-83
2021/01/28 01:58:58;;;;;;;1.70;1.60;;;5.10;99.90;;;;;;4932446;29;20494;-84
2021/01/28 02:01:25;;;;;;;2.20;1.83;;;5.10;99.90;;;;;;4937242;29;20443;-86
2021/01/28 02:03:53;;;;;;;1.70;1.57;;;5.10;99.90;;;;;;4931072;29;20463;-85
2021/01/28 02:06:18;;;;;;;2.67;2.00;;;5.20;99.90;;;;;;4932773;29;20515;-83
2021/01/28 02:08:50;;;;;;;1.70;1.60;;;5.10;99.90;;;;;;4932306;29;20472;-85
2021/01/28 02:11:16;;;;;;;1.43;1.33;;;5.20;99.90;;;;;;4939513;29;20213;-87
2021/01/28 02:13:44;;;;;;;2.57;1.60;;;5.20;99.90;;;;;;4934319;29;20471;-87
2021/01/28 02:16:12;;;;;;;2.00;1.60;;;5.30;99.90;;;;;;4937097;29;21029;-87
2021/01/28 02:18:38;;;;;;;1.93;1.47;;;5.30;99.90;;;;;;4916224;29;20439;-84
2021/01/28 02:21:21;;;;;;;1.77;1.37;;;5.30;99.90;;;;;;4933536;29;20917;-84
2021/01/28 02:23:56;;;;;;;2.03;1.50;;;5.30;99.90;;;;;;4935366;28;20474;-84
2021/01/28 02:26:22;;;;;;;1.40;1.30;;;5.30;99.90;;;;;;4932533;29;20436;-82
2021/01/28 02:28:48;;;;;;;1.60;1.50;;;5.30;99.90;;;;;;4915927;29;20452;-85
2021/01/28 02:31:14;;;;;;;1.77;1.20;;;5.30;99.90;;;;;;4934728;28;20453;-85
2021/01/28 02:33:56;;;;;;;1.20;1.10;;;5.40;99.90;;;;;;4901625;29;20218;-85
2021/01/28 02:36:29;;;;;;;3.87;1.43;;;5.40;99.90;;;;;;4931227;29;20805;-83
2021/01/28 02:38:55;;;;;;;1.60;1.30;;;5.40;99.90;;;;;;4931699;29;20454;-81
2021/01/28 02:41:21;;;;;;;1.37;1.27;;;5.40;99.90;;;;;;4912975;29;20455;-86
2021/01/28 02:43:46;;;;;;;1.93;1.50;;;5.40;99.90;;;;;;4931111;29;20225;-86
2021/01/28 02:46:15;;;;;;;2.40;1.33;;;5.40;99.90;;;;;;4943181;29;20243;-86
2021/01/28 02:48:42;;;;;;;1.40;1.30;;;5.40;99.90;;;;;;4937619;28;20232;-84
2021/01/28 02:51:09;;;;;;;1.50;1.40;;;5.40;99.90;;;;;;4936908;29;20500;-83
2021/01/28 02:53:54;;;;;;;2.23;1.40;;;5.30;99.90;;;;;;4933826;29;20711;-84
2021/01/28 02:56:21;;;;;;;3.23;1.87;;;5.30;99.90;;;;;;4932870;29;20475;-84
2021/01/28 02:58:48;;;;;;;1.50;1.40;;;5.30;99.90;;;;;;4935358;29;20889;-85
2021/01/28 03:01:14;;;;;;;1.40;1.30;;;5.30;99.90;;;;;;4919340;29;20537;-87
2021/01/28 03:03:40;;;;;;;1.87;1.67;;;5.30;99.90;;;;;;4936480;28;20464;-85
2021/01/28 03:06:07;;;;;;;1.83;1.40;;;5.30;99.90;;;;;;4914080;29;20448;-83
2021/01/28 03:08:33;;;;;;;1.70;1.30;;;5.30;99.90;;;;;;4939084;29;20940;-84
2021/01/28 03:10:59;;;;;;;1.83;1.67;;;5.30;99.90;;;;;;4935367;29;20534;-84
2021/01/28 03:13:25;;;;;;;1.73;1.47;;;5.20;99.90;;;;;;4915247;29;20254;-87
2021/01/28 03:15:51;;;;;;;2.00;1.40;;;5.20;99.90;;;;;;4920874;29;20952;-84
2021/01/28 03:18:17;;;;;;;1.90;1.30;;;5.20;99.90;;;;;;4937512;29;20520;-85
2021/01/28 03:20:43;;;;;;;2.27;1.60;;;5.20;99.90;;;;;;4935510;28;20215;-85
2021/01/28 03:23:09;;;;;;;1.77;1.67;;;5.30;99.90;;;;;;4933803;28;20439;-86
2021/01/28 03:25:36;;;;;;;2.00;1.70;;;5.30;99.90;;;;;;4915971;29;20530;-83
2021/01/28 03:28:02;;;;;;;1.73;1.63;;;5.30;99.90;;;;;;4915790;29;20472;-85
2021/01/28 03:30:45;;;;;;;1.70;1.50;;;5.40;99.90;;;;;;4938859;29;20432;-85
2021/01/28 03:33:15;;;;;;;1.70;1.60;;;5.40;99.90;;;;;;4935155;28;20826;-86
2021/01/28 03:35:41;;;;;;;1.90;1.37;;;5.50;99.90;;;;;;4931630;29;20905;-84
2021/01/28 03:38:08;;;;;;;2.27;1.83;;;5.50;99.90;;;;;;4933969;28;20973;-86
2021/01/28 03:40:34;;;;;;;1.90;1.80;;;5.50;99.90;;;;;;4933293;29;20443;-89
2021/01/28 03:43:00;;;;;;;2.13;1.80;;;5.50;99.90;;;;;;4940344;28;20534;-88
2021/01/28 03:45:29;;;;;;;1.87;1.77;;;5.50;99.90;;;;;;4927849;29;20452;-88
2021/01/28 03:47:57;;;;;;;1.90;1.80;;;5.50;99.90;;;;;;4921934;29;20466;-85
2021/01/28 03:50:27;;;;;;;3.10;2.10;;;5.50;99.90;;;;;;4916588;29;20435;-85
2021/01/28 03:52:53;;;;;;;1.97;1.87;;;5.60;99.90;;;;;;4937084;29;20438;-85
2021/01/28 03:55:19;;;;;;;2.27;2.07;;;5.60;99.90;;;;;;4936271;29;20743;-87
2021/01/28 03:57:49;;;;;;;2.17;1.97;;;5.50;99.90;;;;;;4938748;29;20187;-83
2021/01/28 04:00:21;;;;;;;2.50;2.30;;;5.50;99.90;;;;;;4936785;28;20430;-84
2021/01/28 04:02:47;;;;;;;2.83;2.47;;;5.50;99.90;;;;;;4934259;28;20444;-84
2021/01/28 04:05:14;;;;;;;2.10;1.87;;;5.50;99.90;;;;;;4940580;28;20466;-87
2021/01/28 04:07:39;;;;;;;2.10;1.90;;;5.50;99.90;;;;;;4932298;29;20546;-88
2021/01/28 04:10:08;;;;;;;2.00;1.80;;;5.50;99.90;;;;;;4930031;29;20477;-88
2021/01/28 04:12:34;;;;;;;2.47;2.27;;;5.50;99.90;;;;;;4919069;29;20191;-88
2021/01/28 04:15:00;;;;;;;2.43;2.20;;;5.50;99.90;;;;;;4925487;29;21010;-89
2021/01/28 04:17:26;;;;;;;2.97;2.67;;;5.50;99.90;;;;;;4920188;29;20458;-86
2021/01/28 04:19:52;;;;;;;4.00;3.10;;;5.60;99.90;;;;;;4944908;29;20222;-87
2021/01/28 04:22:17;;;;;;;3.13;2.50;;;5.60;99.90;;;;;;4933044;29;20447;-87
2021/01/28 04:24:43;;;;;;;3.03;2.43;;;5.50;99.90;;;;;;4936868;29;20689;-86
2021/01/28 04:27:09;;;;;;;3.37;2.73;;;5.60;99.90;;;;;;4919136;29;20670;-85
2021/01/28 04:29:34;;;;;;;2.67;2.30;;;5.70;99.90;;;;;;4938949;29;20196;-86
2021/01/28 04:32:00;;;;;;;6.10;2.80;;;5.70;99.90;;;;;;4921744;29;20188;-86
2021/01/28 04:34:26;;;;;;;3.43;2.90;;;5.70;99.90;;;;;;4935733;29;20216;-86
2021/01/28 04:36:52;;;;;;;2.97;2.60;;;5.60;99.90;;;;;;4922286;29;20732;-84
2021/01/28 04:39:18;;;;;;;3.57;2.83;;;5.60;99.90;;;;;;4933924;29;20196;-87
2021/01/28 04:41:43;;;;;;;3.30;2.93;;;5.60;99.90;;;;;;4940741;29;20662;-84
2021/01/28 04:44:11;;;;;;;3.10;2.70;;;5.60;99.90;;;;;;4938720;29;20454;-85
2021/01/28 04:46:40;;;;;;;2.67;2.47;;;5.60;99.90;;;;;;4935404;29;20573;-87
2021/01/28 04:49:10;;;;;;;3.07;2.77;;;5.50;99.90;;;;;;4935094;29;20506;-86
2021/01/28 04:51:36;;;;;;;2.47;2.00;;;5.60;99.90;;;;;;4933888;28;20953;-85
2021/01/28 04:54:07;;;;;;;3.50;2.83;;;5.60;99.90;;;;;;4941960;29;20633;-88
2021/01/28 04:56:33;;;;;;;2.70;2.50;;;5.60;99.90;;;;;;4929661;29;20346;-89
2021/01/28 04:59:16;;;;;;;3.07;2.70;;;5.60;99.90;;;;;;4934660;29;20447;-86
2021/01/28 05:01:41;;;;;;;3.27;2.60;;;5.60;99.90;;;;;;4938178;29;20539;-87
2021/01/28 05:04:13;;;;;;;3.43;3.10;;;5.50;99.90;;;;;;4934993;29;20486;-87
2021/01/28 05:06:39;;;;;;;3.43;3.13;;;5.50;99.90;;;;;;4935961;29;20253;-87
2021/01/28 05:09:06;;;;;;;4.37;3.37;;;5.50;99.90;;;;;;4919304;29;20451;-86
2021/01/28 05:11:34;;;;;;;8.27;3.40;;;5.60;99.90;;;;;;4936646;29;20434;-84
2021/01/28 05:14:20;;;;;;;3.70;3.40;;;5.60;99.90;;;;;;4933388;29;20455;-86
2021/01/28 05:16:52;;;;;;;3.93;3.57;;;5.60;99.90;;;;;;4915509;29;20452;-89
2021/01/28 05:19:30;;;;;;;3.70;3.20;;;5.60;99.90;;;;;;4936980;29;20442;-86
2021/01/28 05:22:21;;;;;;;2.93;2.50;;;5.70;99.90;;;;;;4931158;29;20441;-88
2021/01/28 05:25:10;;;;;;;3.13;2.83;;;5.70;99.90;;;;;;4935901;29;21060;-86
2021/01/28 05:27:37;;;;;;;3.37;2.93;;;5.70;99.90;;;;;;4930436;29;21067;-83
2021/01/28 05:30:09;;;;;;;3.40;3.10;;;5.60;99.90;;;;;;4933254;29;20799;-83
2021/01/28 05:32:46;;;;;;;3.90;3.53;;;5.70;99.90;;;;;;4935918;28;20502;-83
2021/01/28 05:35:24;;;;;;;3.50;2.77;;;5.70;99.90;;;;;;4910591;29;20463;-84
2021/01/28 05:38:02;;;;;;;3.47;3.13;;;5.70;99.90;;;;;;4937057;29;20442;-85
2021/01/28 05:40:28;;;;;;;5.07;3.10;;;5.70;99.90;;;;;;4931366;29;20446;-83
2021/01/28 05:42:54;;;;;;;4.10;3.10;;;5.60;99.90;;;;;;4933917;28;20474;-83
2021/01/28 05:45:27;;;;;;;3.87;3.47;;;5.70;99.90;;;;;;4912769;29;20447;-84
2021/01/28 05:47:53;;;;;;;4.37;3.73;;;5.60;99.90;;;;;;4935072;28;21011;-86
2021/01/28 05:50:27;;;;;;;4.23;3.70;;;5.60;99.90;;;;;;4931414;29;20449;-84
2021/01/28 05:53:08;;;;;;;5.20;3.40;;;5.70;99.90;;;;;;4937332;29;20541;-82
2021/01/28 05:55:34;;;;;;;3.43;3.07;;;5.70;99.90;;;;;;4938757;29;20425;-85
2021/01/28 05:58:15;;;;;;;3.60;3.30;;;5.70;99.90;;;;;;4935072;29;20478;-83
2021/01/28 06:01:03;;;;;;;3.60;3.10;;;5.70;99.90;;;;;;4941118;29;20222;-83
2021/01/28 06:04:03;;;;;;;4.70;2.90;;;5.70;99.90;;;;;;4936341;29;20462;-83
2021/01/28 06:06:56;;;;;;;5.00;3.07;;;5.70;99.90;;;;;;4933188;29;20452;-85
2021/01/28 06:09:43;;;;;;;6.47;4.53;;;5.70;99.90;;;;;;4938172;29;20459;-81
2021/01/28 06:12:30;;;;;;;3.87;3.10;;;5.70;99.90;;;;;;4930673;29;20451;-85
2021/01/28 06:15:21;;;;;;;3.47;2.90;;;5.70;99.90;;;;;;4936610;28;20466;-85
2021/01/28 06:18:10;;;;;;;7.80;3.80;;;5.70;99.90;;;;;;4934593;29;20947;-82
2021/01/28 06:20:56;;;;;;;5.50;3.93;;;5.70;99.90;;;;;;4931969;29;20471;-83
2021/01/28 06:23:34;;;;;;;5.00;4.13;;;5.70;99.90;;;;;;4934876;29;20459;-85
2021/01/28 06:26:45;;;;;;;5.60;3.80;;;5.70;99.90;;;;;;4938022;28;21177;-85
2021/01/28 06:29:26;;;;;;;6.03;4.37;;;5.70;99.90;;;;;;4915733;29;20842;-84
2021/01/28 06:32:34;;;;;;;6.30;3.93;;;5.70;99.90;;;;;;4939007;28;20424;-85
2021/01/28 06:35:50;;;;;;;4.13;3.70;;;5.60;99.90;;;;;;4937604;29;20455;-83
2021/01/28 06:38:45;;;;;;;4.87;4.30;;;5.60;99.90;;;;;;4896574;29;20439;-85
2021/01/28 06:41:15;;;;;;;7.20;5.50;;;5.60;99.90;;;;;;4930781;29;20448;-87
2021/01/28 06:43:48;;;;;;;8.13;4.47;;;5.50;99.90;;;;;;4935058;29;20849;-86
2021/01/28 06:46:28;;;;;;;10.97;5.80;;;5.60;99.90;;;;;;4930453;29;20442;-84
2021/01/28 06:49:10;;;;;;;12.70;4.67;;;5.60;99.90;;;;;;4938205;29;20476;-82
2021/01/28 06:51:58;;;;;;;7.73;4.77;;;5.60;99.90;;;;;;4933206;29;20446;-86
2021/01/28 06:54:30;;;;;;;5.33;4.07;;;5.60;99.90;;;;;;4934583;29;20456;-86
2021/01/28 06:57:20;;;;;;;7.70;4.27;;;5.60;99.90;;;;;;4938359;28;20431;-85
2021/01/28 07:00:07;;;;;;;9.80;3.70;;;5.70;99.90;;;;;;4936547;29;20470;-87
2021/01/28 07:02:43;;;;;;;8.93;3.70;;;5.70;99.90;;;;;;4941768;29;20467;-86
2021/01/28 07:05:27;;;;;;;6.47;4.47;;;5.70;99.90;;;;;;4933708;29;20843;-84
2021/01/28 07:08:02;;;;;;;5.23;3.80;;;5.70;99.90;;;;;;4934649;28;20474;-84
2021/01/28 07:10:40;;;;;;;6.30;4.50;;;5.70;99.90;;;;;;4933967;29;20485;-86
2021/01/28 07:13:10;;;;;;;7.30;3.40;;;5.70;99.90;;;;;;4935858;28;20798;-83
2021/01/28 07:15:36;;;;;;;5.50;4.10;;;5.70;99.90;;;;;;4935252;29;20444;-84
2021/01/28 07:18:15;;;;;;;6.53;3.93;;;5.70;99.90;;;;;;4932774;29;20436;-84
2021/01/28 07:20:58;;;;;;;9.07;4.53;;;5.70;99.90;;;;;;4939064;29;20183;-83
2021/01/28 07:23:30;;;;;;;5.43;4.27;;;5.70;99.90;;;;;;4934085;29;20968;-85
2021/01/28 07:26:20;;;;;;;10.10;4.40;;;5.70;99.90;;;;;;4922828;29;20474;-86
2021/01/28 07:28:48;;;;;;;5.77;4.60;;;5.70;99.90;;;;;;4916250;29;20518;-84
2021/01/28 07:31:42;;;;;;;5.67;4.20;;;5.70;99.90;;;;;;4934425;29;20483;-83
2021/01/28 07:34:14;;;;;;;6.60;4.70;;;5.70;99.90;;;;;;4938715;28;20461;-84
2021/01/28 07:36:43;;;;;;;5.40;4.43;;;5.80;99.90;;;;;;4936924;28;20440;-84
2021/01/28 07:39:28;;;;;;;7.00;3.80;;;5.70;99.90;;;;;;4912844;29;20523;-85
2021/01/28 07:42:14;;;;;;;5.53;3.67;;;5.70;99.90;;;;;;4938668;29;20470;-85
2021/01/28 07:44:44;;;;;;;6.10;3.00;;;5.80;99.90;;;;;;4933320;28;20471;-85
2021/01/28 07:47:29;;;;;;;4.13;3.30;;;5.80;99.90;;;;;;4926914;29;20466;-85
2021/01/28 07:50:14;;;;;;;5.30;3.70;;;5.70;99.90;;;;;;4933464;29;20465;-83
2021/01/28 07:52:40;;;;;;;7.43;3.47;;;5.60;99.90;;;;;;4925252;29;20449;-83
2021/01/28 07:55:38;;;;;;;4.60;3.60;;;5.70;99.90;;;;;;4938314;29;20454;-86
2021/01/28 07:58:18;;;;;;;15.17;8.93;;;5.60;99.90;;;;;;4934772;28;20439;-83
2021/01/28 08:00:45;;;;;;;6.37;4.43;;;5.70;99.90;;;;;;4941457;29;20446;-82
2021/01/28 08:03:25;;;;;;;4.23;3.70;;;5.60;99.90;;;;;;4928898;29;20466;-82
2021/01/28 08:05:53;;;;;;;5.67;4.40;;;5.70;99.90;;;;;;4918890;28;20454;-84
2021/01/28 08:08:20;;;;;;;5.20;4.00;;;5.70;99.90;;;;;;4936291;29;20474;-86
2021/01/28 08:10:47;;;;;;;9.30;3.83;;;5.80;99.90;;;;;;4930019;28;20821;-82
2021/01/28 08:13:25;;;;;;;7.40;3.97;;;5.90;99.90;;;;;;4936572;29;20458;-85
2021/01/28 08:16:06;;;;;;;6.47;3.50;;;5.90;99.90;;;;;;4931051;29;20836;-80
2021/01/28 08:18:37;;;;;;;4.30;3.60;;;6.00;99.90;;;;;;4926529;29;20447;-84
2021/01/28 08:21:20;;;;;;;3.77;3.33;;;6.00;99.90;;;;;;4911554;29;20451;-85
2021/01/28 08:23:49;;;;;;;6.10;4.37;;;6.00;99.90;;;;;;4912306;29;20483;-82
2021/01/28 08:26:28;;;;;;;8.97;3.63;;;6.10;99.90;;;;;;4937100;29;20466;-85
2021/01/28 08:29:22;;;;;;;4.90;3.30;;;6.10;99.90;;;;;;4933441;29;21710;-83
2021/01/28 08:31:53;;;;;;;5.43;4.40;;;6.10;99.90;;;;;;4921957;29;20435;-82
2021/01/28 08:34:30;;;;;;;5.50;3.40;;;6.10;99.90;;;;;;4913232;29;20475;-83
2021/01/28 08:37:00;;;;;;;6.33;3.90;;;6.10;99.90;;;;;;4932078;29;20873;-79
2021/01/28 08:39:28;;;;;;;5.00;3.90;;;6.10;99.90;;;;;;4929422;29;20440;-83
2021/01/28 08:42:14;;;;;;;13.73;4.43;;;6.20;99.90;;;;;;4932530;29;20446;-81
2021/01/28 08:44:43;;;;;;;4.20;3.53;;;6.30;99.90;;;;;;4918969;29;20551;-82
2021/01/28 08:47:11;;;;;;;5.20;3.63;;;6.40;99.90;;;;;;4928009;29;20496;-83
2021/01/28 08:49:37;;;;;;;3.87;3.47;;;6.50;99.90;;;;;;4930392;29;20436;-81
2021/01/28 08:52:11;;;;;;;3.07;2.77;;;6.50;99.90;;;;;;4929576;29;20427;-83
2021/01/28 08:54:45;;;;;;;6.17;3.67;;;6.50;99.90;;;;;;4931618;29;20801;-83
2021/01/28 08:57:15;;;;;;;4.17;3.30;;;6.60;99.90;;;;;;4916868;29;20519;-84
2021/01/28 08:59:48;;;;;;;5.43;3.40;;;6.70;99.90;;;;;;4930209;29;20828;-82
2021/01/28 09:02:43;;;;;;;11.90;4.37;;;6.70;99.90;;;;;;4903178;29;20625;-83
2021/01/28 09:05:48;;;;;;;5.00;4.13;;;6.70;99.90;;;;;;4920459;29;20471;-85
2021/01/28 09:08:35;;;;;;;4.10;3.63;;;6.70;99.90;;;;;;4934358;29;20492;-86
2021/01/28 09:11:25;;;;;;;5.77;3.50;;;6.80;99.90;;;;;;4939541;29;20442;-83
2021/01/28 09:14:17;;;;;;;4.20;3.80;;;6.90;99.90;;;;;;4909572;29;20489;-85
2021/01/28 09:16:55;;;;;;;4.20;3.20;;;6.80;99.90;;;;;;4916868;28;20444;-84
2021/01/28 09:19:22;;;;;;;8.67;3.27;;;6.80;99.90;;;;;;4932882;29;20435;-86
2021/01/28 09:21:52;;;;;;;5.00;3.00;;;6.70;99.90;;;;;;4934137;29;20443;-84
2021/01/28 09:24:24;;;;;;;4.50;3.00;;;6.60;99.90;;;;;;4933944;28;20498;-86
2021/01/28 09:27:14;;;;;;;3.50;3.07;;;6.60;99.90;;;;;;4914166;29;20435;-83
2021/01/28 09:29:42;;;;;;;2.80;2.17;;;6.70;99.90;;;;;;4922887;29;20435;-85
2021/01/28 09:32:23;;;;;;;3.40;2.30;;;6.70;99.90;;;;;;4922625;29;20431;-87
2021/01/28 09:35:09;;;;;;;2.83;2.03;;;6.90;99.90;;;;;;4934134;29;20511;-87
2021/01/28 09:37:37;;;;;;;1.60;1.33;;;7.00;99.90;;;;;;4912999;29;20481;-82
2021/01/28 09:40:19;;;;;;;4.53;1.73;;;7.30;99.90;;;;;;4922625;29;20469;-86
2021/01/28 09:42:44;;;;;;;2.70;1.43;;;7.40;99.90;;;;;;4939522;29;20944;-86
2021/01/28 09:45:18;;;;;;;1.50;1.23;;;7.60;99.90;;;;;;4947226;29;20461;-87
2021/01/28 09:47:55;;;;;;;1.37;1.20;;;7.80;99.90;;;;;;4929046;29;20227;-86
2021/01/28 09:50:23;;;;;;;1.50;1.40;;;7.90;99.90;;;;;;4945326;29;20430;-87
2021/01/28 09:52:51;;;;;;;1.47;1.37;;;8.00;99.90;;;;;;4941656;29;20427;-87
2021/01/28 09:55:22;;;;;;;2.50;1.40;;;8.10;99.90;;;;;;4935132;29;20450;-87
2021/01/28 09:57:49;;;;;;;1.57;1.33;;;8.10;99.90;;;;;;4926456;29;20451;-86
2021/01/28 10:00:18;;;;;;;1.30;1.20;;;8.20;99.90;;;;;;4952205;29;20438;-88
2021/01/28 10:02:55;;;;;;;1.60;1.40;;;8.20;99.90;;;;;;4940633;29;20444;-85
2021/01/28 10:05:27;;;;;;;2.13;1.20;;;8.30;99.90;;;;;;4943503;29;20431;-85
2021/01/28 10:07:53;;;;;;;1.33;1.20;;;8.30;99.90;;;;;;4948509;28;20470;-85
2021/01/28 10:10:22;;;;;;;2.90;1.27;;;8.40;99.90;;;;;;4925753;29;20472;-86
2021/01/28 10:12:49;;;;;;;1.50;1.40;;;8.40;99.90;;;;;;4949962;29;20180;-84
2021/01/28 10:15:16;;;;;;;2.37;1.37;;;8.40;99.90;;;;;;4912114;29;20483;-87
2021/01/28 10:17:44;;;;;;;1.50;1.40;;;8.40;99.90;;;;;;4953702;28;20439;-87
2021/01/28 10:20:11;;;;;;;2.27;1.20;;;8.50;99.90;;;;;;4925799;29;20968;-86
2021/01/28 10:22:39;;;;;;;1.40;1.30;;;8.50;99.90;;;;;;4948696;28;20458;-88
2021/01/28 10:25:07;;;;;;;3.73;1.73;;;8.60;99.90;;;;;;4941673;29;20478;-88
2021/01/28 10:27:33;;;;;;;6.60;1.77;;;8.60;99.90;;;;;;4946983;29;20482;-88
2021/01/28 10:30:03;;;;;;;2.23;1.20;;;8.70;99.90;;;;;;4922912;29;20518;-85
2021/01/28 10:32:31;;;;;;;1.40;1.30;;;8.70;99.90;;;;;;4923667;29;20878;-83
2021/01/28 10:34:58;;;;;;;2.33;1.23;;;8.70;99.90;;;;;;4908965;29;21300;-89
2021/01/28 10:37:24;;;;;;;1.50;1.40;;;8.70;99.90;;;;;;4933987;29;20443;-88
2021/01/28 10:39:49;;;;;;;2.13;1.80;;;8.70;99.90;;;;;;4936456;29;20454;-81
2021/01/28 10:42:21;;;;;;;1.97;1.30;;;8.80;99.90;;;;;;4927512;29;20505;-85
2021/01/28 10:44:49;;;;;;;2.07;1.43;;;8.80;99.90;;;;;;4917254;29;20231;-86
2021/01/28 10:47:30;;;;;;;1.27;1.10;;;8.80;99.90;;;;;;4914443;29;21036;-89
2021/01/28 10:50:21;;;;;;;2.37;1.60;;;8.80;99.90;;;;;;4911408;29;20798;-85
2021/01/28 10:52:47;;;;;;;1.20;1.10;;;8.80;99.90;;;;;;4919946;28;20522;-86
2021/01/28 10:55:13;;;;;;;1.10;1.00;;;8.80;99.90;;;;;;4935583;28;20908;-87
2021/01/28 10:57:48;;;;;;;1.40;1.30;;;8.80;99.90;;;;;;4929116;29;20448;-87
2021/01/28 11:00:15;;;;;;;1.00;0.90;;;8.80;99.90;;;;;;4918910;29;20483;-85
2021/01/28 11:02:44;;;;;;;1.30;1.10;;;8.90;99.90;;;;;;4938493;29;20927;-84
2021/01/28 11:05:14;;;;;;;1.63;1.20;;;8.90;99.90;;;;;;4913599;29;20467;-84
2021/01/28 11:07:39;;;;;;;1.50;1.23;;;9.10;99.90;;;;;;4934197;28;20471;-84
2021/01/28 11:10:06;;;;;;;1.30;1.20;;;9.30;99.90;;;;;;4897962;29;20495;-83
2021/01/28 11:15:23;;;;;;;1.10;1.00;;;9.70;99.90;;;;;;4987703;23;20494;-86
2021/01/28 11:17:52;;;;;;;1.33;1.17;;;9.70;99.90;;;;;;4952607;28;20450;-85
2021/01/28 11:20:23;;;;;;;1.30;1.20;;;9.70;99.90;;;;;;4941932;28;20422;-85
2021/01/28 11:22:49;;;;;;;1.80;1.20;;;9.60;99.90;;;;;;4958428;28;20445;-86
2021/01/28 11:25:22;;;;;;;1.80;1.43;;;9.70;99.90;;;;;;4925605;28;20466;-85
2021/01/28 11:27:48;;;;;;;2.07;1.97;;;9.60;99.90;;;;;;4923591;28;20227;-82
2021/01/28 11:30:15;;;;;;;1.53;1.33;;;9.60;99.90;;;;;;4943233;28;20910;-86
2021/01/28 11:32:45;;;;;;;1.27;1.17;;;9.70;99.90;;;;;;4940408;28;20944;-84
2021/01/28 11:35:11;;;;;;;1.63;1.53;;;9.70;99.90;;;;;;4927189;28;20475;-83
2021/01/28 11:37:37;;;;;;;2.87;1.13;;;9.70;99.90;;;;;;4921384;28;20446;-82
2021/01/28 11:40:14;;;;;;;1.20;1.10;;;9.70;99.90;;;;;;4928962;28;21114;-84
2021/01/28 11:42:40;;;;;;;2.50;1.27;;;9.80;99.90;;;;;;4943919;28;22051;-86
2021/01/28 11:45:06;;;;;;;1.73;1.27;;;9.80;99.90;;;;;;4924626;28;20537;-81
2021/01/28 11:47:34;;;;;;;1.90;1.30;;;9.80;99.90;;;;;;4925151;29;20215;-82
2021/01/28 11:50:02;;;;;;;1.20;1.10;;;9.80;99.90;;;;;;4939933;28;20458;-80
2021/01/28 11:52:28;;;;;;;1.40;1.10;;;9.80;99.90;;;;;;4941371;28;21237;-74
2021/01/28 11:54:58;;;;;;;2.27;1.00;;;9.80;99.90;;;;;;4934110;28;20450;-83
2021/01/28 11:57:24;;;;;;;1.40;1.10;;;9.80;99.90;;;;;;4937395;28;20188;-83
2021/01/28 11:59:50;;;;;;;1.87;1.20;;;9.80;99.90;;;;;;4925188;28;20541;-85
2021/01/28 12:02:31;;;;;;;1.40;1.00;;;9.90;99.90;;;;;;4942868;28;20534;-86
2021/01/28 12:05:05;;;;;;;1.97;1.30;;;9.90;99.90;;;;;;4922509;28;20216;-86
2021/01/28 12:19:33;;;;;;;1.20;1.10;;;9.90;99.90;;;;;;5114398;23;20502;-86
2021/01/28 12:22:07;;;;;;;1.60;1.40;;;10.00;99.90;;;;;;4894805;29;20500;-85
2021/01/28 12:25:18;;;;;;;;;;;;;;;;;;;;;
2021/01/28 12:34:41;;;;;;;1.87;1.37;;;10.10;99.90;;;;;;4903476;29;20522;-86
2021/01/28 12:37:07;;;;;;;1.63;1.40;;;10.10;99.90;;;;;;4917151;29;20869;-86
2021/01/28 12:39:33;;;;;;;1.43;1.20;;;10.20;99.90;;;;;;4932620;29;20504;-84
2021/01/28 12:41:59;;;;;;;2.00;1.60;;;10.20;99.90;;;;;;4934035;29;20657;-84
2021/01/28 12:44:28;;;;;;;1.50;1.30;;;10.20;99.90;;;;;;4900758;29;20456;-85
2021/01/28 12:46:54;;;;;;;1.50;1.40;;;10.30;99.90;;;;;;4916986;29;20455;-86
2021/01/28 12:49:52;;;;;;;;;;;;;;;;;;;;;
2021/01/28 12:55:51;;;;;;;1.33;1.23;;;10.30;99.90;;;;;;4906827;29;20431;-85
2021/01/28 12:58:19;;;;;;;1.50;1.40;;;10.30;99.90;;;;;;4934483;29;20507;-86
2021/01/28 13:00:50;;;;;;;1.73;1.63;;;10.30;99.90;;;;;;4901695;29;20957;-81
2021/01/28 13:03:16;;;;;;;2.20;1.60;;;10.30;99.90;;;;;;4932140;29;20523;-85
2021/01/28 13:05:41;;;;;;;1.53;1.40;;;10.30;99.90;;;;;;4918984;29;20966;-84
2021/01/28 13:08:11;;;;;;;1.50;1.40;;;10.30;99.90;;;;;;4914085;29;20677;-83
2021/01/28 13:10:36;;;;;;;1.40;1.20;;;10.40;99.90;;;;;;4917542;29;20196;-84
2021/01/28 13:13:02;;;;;;;1.47;1.30;;;10.40;99.90;;;;;;4900873;28;20439;-83
2021/01/28 13:15:29;;;;;;;1.43;1.33;;;10.50;99.90;;;;;;4912917;29;20199;-85
2021/01/28 13:17:57;;;;;;;1.50;1.40;;;10.50;99.90;;;;;;4916251;29;20751;-82
2021/01/28 13:20:23;;;;;;;1.60;1.50;;;10.60;99.90;;;;;;4913178;29;20451;-84
2021/01/28 13:22:51;;;;;;;1.90;1.50;;;10.60;99.90;;;;;;4932434;29;20442;-83
2021/01/28 13:25:17;;;;;;;1.57;1.47;;;10.60;99.90;;;;;;4901349;29;20215;-85
2021/01/28 13:27:44;;;;;;;1.63;1.20;;;10.60;99.90;;;;;;4905431;29;20471;-85
2021/01/28 13:30:12;;;;;;;1.93;1.80;;;10.60;99.90;;;;;;4918274;29;20493;-83
2021/01/28 13:32:38;;;;;;;1.70;1.60;;;10.60;99.90;;;;;;4908018;29;20444;-85
2021/01/28 13:35:05;;;;;;;1.40;1.30;;;10.70;99.90;;;;;;4898670;29;20479;-83
2021/01/28 13:37:33;;;;;;;3.70;1.70;;;10.70;99.90;;;;;;4898480;29;20455;-82
2021/01/28 13:40:00;;;;;;;1.93;1.73;;;10.80;99.90;;;;;;4924126;29;20447;-83
2021/01/28 13:42:27;;;;;;;1.37;1.27;;;10.90;99.90;;;;;;4909869;29;20455;-84
2021/01/28 13:44:55;;;;;;;3.00;1.70;;;10.90;99.90;;;;;;5044756;23;20499;-85
2021/01/28 13:47:21;;;;;;;1.40;1.20;;;10.90;99.90;;;;;;4932587;28;20569;-84
2021/01/28 13:49:50;;;;;;;2.00;1.50;;;10.90;99.90;;;;;;4952675;28;20454;-84
2021/01/28 13:52:18;;;;;;;1.90;1.70;;;10.90;99.90;;;;;;4934745;28;20427;-84
2021/01/28 13:54:51;;;;;;;2.43;1.80;;;10.90;99.90;;;;;;4924270;28;20984;-82